createdAt,value
2023-02-14T00:00:38.631Z,981.17
2023-02-14T00:05:40.444Z,981.24
2023-02-14T00:10:42.398Z,981.26
2023-02-14T00:15:44.424Z,981.24
2023-02-14T00:20:46.324Z,981.25
2023-02-14T00:25:47.886Z,981.21
2023-02-14T00:30:49.195Z,981.21
2023-02-14T00:35:51.055Z,981.21
2023-02-14T00:40:52.516Z,981.27
2023-02-14T00:45:54.425Z,981.24
2023-02-14T00:50:55.678Z,981.19
2023-02-14T00:55:57.598Z,981.31
2023-02-14T01:00:59.818Z,981.28
2023-02-14T01:06:01.416Z,981.27
2023-02-14T01:11:03.134Z,981.31
2023-02-14T01:16:04.941Z,981.35
2023-02-14T01:21:06.960Z,981.38
2023-02-14T01:26:08.231Z,981.31
2023-02-14T01:31:10.276Z,981.28
2023-02-14T01:36:11.761Z,981.23
2023-02-14T01:41:13.778Z,981.25
2023-02-14T01:46:15.857Z,981.28
2023-02-14T01:51:17.543Z,981.39
2023-02-14T01:56:18.930Z,981.41
2023-02-14T02:01:20.445Z,981.37
2023-02-14T02:06:22.135Z,981.4
2023-02-14T02:11:23.761Z,981.33
2023-02-14T02:16:25.695Z,981.26
2023-02-14T02:21:27.472Z,981.26
2023-02-14T02:26:29.241Z,981.31
2023-02-14T02:31:30.981Z,981.28
2023-02-14T02:36:32.548Z,981.22
2023-02-14T02:41:34.207Z,981.14
2023-02-14T02:46:35.990Z,981.08
2023-02-14T02:51:37.285Z,981.06
2023-02-14T02:56:39.384Z,981.03
2023-02-14T03:01:41.486Z,981.09
2023-02-14T03:06:43.033Z,981.02
2023-02-14T03:11:44.340Z,980.99
2023-02-14T03:16:46.568Z,981.01
2023-02-14T03:21:48.222Z,981.01
2023-02-14T03:26:49.754Z,981.13
2023-02-14T03:31:51.839Z,981.07
2023-02-14T03:36:52.889Z,980.94
2023-02-14T03:41:54.716Z,981.16
2023-02-14T03:46:56.018Z,981.13
2023-02-14T03:51:57.631Z,981.19
2023-02-14T03:56:59.571Z,981.14
2023-02-14T04:02:01.741Z,981.12
2023-02-14T04:07:03.611Z,981.08
2023-02-14T04:12:04.928Z,981.03
2023-02-14T04:17:06.697Z,981
2023-02-14T04:22:07.880Z,981.16
2023-02-14T04:27:09.535Z,981.13
2023-02-14T04:32:11.003Z,981.14
2023-02-14T04:37:12.281Z,981.11
2023-02-14T04:42:13.951Z,981.07
2023-02-14T04:47:15.941Z,981.06
2023-02-14T04:52:17.640Z,980.91
2023-02-14T04:57:19.620Z,980.92
2023-02-14T05:02:21.295Z,980.82
2023-02-14T05:07:23.399Z,980.77
2023-02-14T05:12:25.506Z,980.78
2023-02-14T05:17:26.805Z,980.73
2023-02-14T05:22:28.505Z,980.73
2023-02-14T05:27:30.196Z,980.77
2023-02-14T05:32:31.661Z,980.71
2023-02-14T05:37:39.268Z,980.67
2023-02-14T05:42:40.750Z,980.72
2023-02-14T05:47:42.947Z,980.72
2023-02-14T05:52:44.581Z,980.77
2023-02-14T05:57:45.782Z,980.91
2023-02-14T06:02:47.458Z,980.92
2023-02-14T06:07:49.112Z,980.9
2023-02-14T06:12:50.328Z,980.9
2023-02-14T06:17:51.630Z,980.97
2023-02-14T06:22:53.602Z,980.97
2023-02-14T06:27:55.064Z,980.98
2023-02-14T06:32:57.117Z,981.03
2023-02-14T06:37:58.923Z,980.95
2023-02-14T06:43:00.392Z,981.06
2023-02-14T06:48:01.884Z,981.05
2023-02-14T06:53:03.320Z,981.11
2023-02-14T06:58:04.906Z,981.11
2023-02-14T07:03:06.715Z,981.07
2023-02-14T07:08:08.714Z,981.05
2023-02-14T07:13:10.499Z,980.98
2023-02-14T07:18:11.581Z,980.97
2023-02-14T07:23:13.322Z,981.08
2023-02-14T07:28:15.044Z,981.08
2023-02-14T07:33:16.816Z,980.97
2023-02-14T07:38:18.696Z,980.93
2023-02-14T07:43:20.265Z,980.8
2023-02-14T07:48:21.906Z,980.84
2023-02-14T07:53:23.763Z,980.79
2023-02-14T07:58:25.324Z,980.73
2023-02-14T08:03:27.150Z,980.7
2023-02-14T08:08:28.749Z,980.63
2023-02-14T08:13:30.816Z,980.62
2023-02-14T08:18:32.418Z,980.62
2023-02-14T08:23:34.290Z,980.62
2023-02-14T08:28:35.667Z,980.64
2023-02-14T08:33:37.840Z,980.65
2023-02-14T08:38:39.099Z,980.62
2023-02-14T08:43:40.687Z,980.71
2023-02-14T08:48:42.225Z,980.65
2023-02-14T08:53:44.354Z,980.67
2023-02-14T08:58:45.824Z,980.72
2023-02-14T09:03:47.934Z,980.77
2023-02-14T09:08:49.663Z,980.85
2023-02-14T09:13:51.356Z,980.88
2023-02-14T09:18:53.218Z,980.85
2023-02-14T09:23:54.940Z,980.82
2023-02-14T09:28:56.772Z,980.81
2023-02-14T09:33:58.771Z,980.8
2023-02-14T09:39:00.472Z,980.78
2023-02-14T09:44:01.535Z,980.75
2023-02-14T09:49:03.365Z,980.75
2023-02-14T09:54:05.119Z,980.67
2023-02-14T09:59:06.532Z,980.65
2023-02-14T10:04:08.009Z,980.66
2023-02-14T10:09:09.725Z,980.66
2023-02-14T10:14:11.381Z,980.6
2023-02-14T10:19:13.468Z,980.63
2023-02-14T10:24:15.034Z,980.61
2023-02-14T10:29:16.946Z,980.58
2023-02-14T10:34:18.666Z,980.52
2023-02-14T10:39:20.013Z,980.49
2023-02-14T10:44:21.588Z,980.43
2023-02-14T10:49:23.485Z,980.41
2023-02-14T10:54:25.079Z,980.34
2023-02-14T10:59:27.005Z,980.32
2023-02-14T11:04:28.494Z,980.29
2023-02-14T11:09:30.096Z,980.2
2023-02-14T11:14:31.948Z,980.16
2023-02-14T11:19:34.586Z,980.11
2023-02-14T11:24:35.709Z,980.03
2023-02-14T11:29:37.217Z,979.98
2023-02-14T11:34:38.771Z,979.88
2023-02-14T11:39:40.941Z,979.83
2023-02-14T11:44:42.984Z,979.73
2023-02-14T11:49:44.312Z,979.75
2023-02-14T11:54:46.252Z,979.72
2023-02-14T11:59:47.563Z,979.63
2023-02-14T12:04:49.364Z,979.55
2023-02-14T12:09:50.750Z,979.43
2023-02-14T12:14:52.253Z,979.38
2023-02-14T12:19:53.774Z,979.34
2023-02-14T12:24:55.454Z,979.32
2023-02-14T12:29:57.302Z,979.26
2023-02-14T12:34:58.953Z,979.21
2023-02-14T12:40:00.654Z,979.17
2023-02-14T12:45:01.868Z,979.2
2023-02-14T13:15:12.940Z,978.89
2023-02-14T13:25:16.406Z,978.83
2023-02-14T13:30:18.539Z,978.77
2023-02-14T13:35:20.398Z,978.77
2023-02-14T13:40:22.471Z,978.76
2023-02-14T14:00:28.458Z,978.65
2023-02-14T14:05:29.696Z,978.62
2023-02-14T14:15:32.904Z,978.53
2023-02-14T14:20:35.045Z,978.54
2023-02-14T14:25:36.727Z,978.51
2023-02-14T14:30:38.465Z,978.44
2023-02-14T14:35:40.139Z,978.35
2023-02-14T14:40:42.263Z,978.38
2023-02-14T14:45:43.539Z,978.33
2023-02-14T14:50:44.717Z,978.3
2023-02-14T14:55:46.946Z,978.27
2023-02-14T15:00:48.610Z,978.19
2023-02-14T15:05:50.666Z,978.15
2023-02-14T15:10:52.802Z,978.14
2023-02-14T15:15:54.691Z,978.18
2023-02-14T15:20:56.404Z,978.23
2023-02-14T15:25:58.345Z,978.25
2023-02-14T15:31:00.457Z,978.17
2023-02-14T15:36:01.331Z,978.16
2023-02-14T15:41:03.157Z,978.2
2023-02-14T15:46:05.320Z,978.22
2023-02-14T15:51:06.963Z,978.23
2023-02-14T15:56:09.007Z,978.24
2023-02-14T16:01:10.580Z,978.23
2023-02-14T16:06:12.191Z,978.26
2023-02-14T16:11:13.999Z,978.24
2023-02-14T16:16:15.305Z,978.16
2023-02-14T16:21:16.973Z,978.2
2023-02-14T16:26:19.142Z,978.23
2023-02-14T16:31:20.833Z,978.26
2023-02-14T16:36:21.931Z,978.27
2023-02-14T16:41:23.439Z,978.27
2023-02-14T16:46:25.171Z,978.34
2023-02-14T16:51:26.679Z,978.34
2023-02-14T16:56:28.368Z,978.34
2023-02-14T17:01:30.058Z,978.32
2023-02-14T17:06:31.846Z,978.33
2023-02-14T17:11:33.887Z,978.27
2023-02-14T17:16:35.940Z,978.35
2023-02-14T17:21:38.073Z,978.39
2023-02-14T17:26:39.481Z,978.37
2023-02-14T17:31:40.913Z,978.38
2023-02-14T17:36:42.071Z,978.4
2023-02-14T17:41:43.609Z,978.45
2023-02-14T17:46:45.690Z,978.54
2023-02-14T17:51:47.311Z,978.57
2023-02-14T17:56:48.875Z,978.53
2023-02-14T18:01:50.946Z,978.53
2023-02-14T18:06:52.225Z,978.54
2023-02-14T18:11:54.082Z,978.51
2023-02-14T18:16:56.065Z,978.49
2023-02-14T18:21:57.382Z,978.44
2023-02-14T18:26:59.100Z,978.39
2023-02-14T18:32:00.761Z,978.35
2023-02-14T18:37:02.632Z,978.24
2023-02-14T18:42:04.205Z,978.29
2023-02-14T18:47:05.513Z,978.27
2023-02-14T18:52:06.638Z,978.24
2023-02-14T18:57:08.507Z,978.23
2023-02-14T19:02:10.216Z,978.19
2023-02-14T19:07:12.136Z,978.19
2023-02-14T19:12:13.892Z,978.12
2023-02-14T19:17:15.833Z,978.07
2023-02-14T19:22:17.609Z,978.08
2023-02-14T19:27:19.461Z,978.1
2023-02-14T19:32:20.789Z,978.07
2023-02-14T19:37:22.860Z,978.01
2023-02-14T19:42:25.026Z,978.05
2023-02-14T19:47:39.775Z,977.96
2023-02-14T19:52:27.837Z,977.93
2023-02-14T19:57:30.117Z,977.84
2023-02-14T20:02:32.156Z,977.86
2023-02-14T20:07:33.461Z,977.89
2023-02-14T20:12:34.837Z,977.84
2023-02-14T20:17:36.509Z,977.84
2023-02-14T20:22:38.124Z,977.85
2023-02-14T20:27:40.062Z,977.79
2023-02-14T20:32:41.891Z,977.78
2023-02-14T20:37:43.747Z,977.73
2023-02-14T20:42:45.311Z,977.79
2023-02-14T20:47:47.663Z,977.7
2023-02-14T20:52:48.411Z,977.65
2023-02-14T20:57:50.160Z,977.63
2023-02-14T21:02:51.778Z,977.6
2023-02-14T21:07:53.459Z,977.49
2023-02-14T21:12:55.547Z,977.42
2023-02-14T21:17:57.263Z,977.45
2023-02-14T21:22:59.101Z,977.42
2023-02-14T21:28:00.416Z,977.41
2023-02-14T21:33:02.112Z,977.42
2023-02-14T21:38:03.315Z,977.4
2023-02-14T21:43:04.726Z,977.38
2023-02-14T21:48:06.418Z,977.32
2023-02-14T21:53:07.665Z,977.28
2023-02-14T21:58:09.252Z,977.24
2023-02-14T22:03:12.306Z,977.16
2023-02-14T22:08:12.581Z,977.15
2023-02-14T22:13:14.646Z,977.13
2023-02-14T22:18:15.889Z,977.07
2023-02-14T22:18:22.191Z,977.06
2023-02-14T22:23:24.600Z,976.98
2023-02-14T22:28:24.984Z,976.98
2023-02-14T22:33:26.366Z,976.98
2023-02-14T22:38:27.649Z,976.95
2023-02-14T22:43:28.761Z,976.94
2023-02-14T22:48:30.690Z,976.9
2023-02-14T22:53:31.882Z,976.95
2023-02-14T22:58:33.182Z,976.98
2023-02-14T23:13:37.673Z,976.94
2023-02-14T23:18:38.859Z,976.95
2023-02-14T23:23:40.755Z,976.81
2023-02-14T23:28:42.474Z,976.78
2023-02-14T23:33:43.621Z,976.76
2023-02-14T23:38:45.394Z,976.73
2023-02-14T23:43:47.158Z,976.7
2023-02-14T23:48:49.118Z,976.64
2023-02-14T23:53:50.332Z,976.7
2023-02-14T23:58:51.637Z,976.6
